createdAt,value
2023-09-22T03:46:47.287Z,16.55
2023-09-22T03:49:52.241Z,16.55
2023-09-22T03:52:55.352Z,16.12
2023-09-22T03:56:01.808Z,16.21
2023-09-22T03:59:06.407Z,16.29
2023-09-22T04:02:09.693Z,16.29
2023-09-22T04:05:19.034Z,16.26
2023-09-22T04:08:27.234Z,16.23
2023-09-22T04:11:30.385Z,16.21
2023-09-22T04:14:33.627Z,16.21
2023-09-22T04:17:38.384Z,16.16
2023-09-22T04:20:45.311Z,16.17
2023-09-22T04:24:00.275Z,16.17
2023-09-22T04:27:08.012Z,16.17
2023-09-22T04:30:14.394Z,16.21
2023-09-22T04:33:18.714Z,16.23
2023-09-22T04:36:25.066Z,16.24
2023-09-22T04:39:33.165Z,16.27
2023-09-22T04:42:36.479Z,16.29
2023-09-22T04:45:41.996Z,16.34
2023-09-22T04:48:48.037Z,16.40
2023-09-22T04:51:50.972Z,16.46
2023-09-22T04:54:54.905Z,16.60
2023-09-22T04:57:58.088Z,16.75
2023-09-22T05:01:02.956Z,16.85
2023-09-22T05:04:07.894Z,16.96
2023-09-22T05:07:14.438Z,17.00
2023-09-22T05:10:17.306Z,17.02
2023-09-22T05:13:20.314Z,17.10
2023-09-22T05:16:23.265Z,17.17
2023-09-22T05:19:26.526Z,17.23
2023-09-22T05:22:29.337Z,17.30
2023-09-22T05:25:32.394Z,17.38
2023-09-22T05:28:35.631Z,17.48
2023-09-22T05:31:38.466Z,17.51
2023-09-22T05:34:43.126Z,17.54
2023-09-22T05:37:46.418Z,17.67
2023-09-22T05:40:50.152Z,17.73
2023-09-22T05:43:57.517Z,17.76
2023-09-22T05:47:00.347Z,17.85
2023-09-22T05:50:03.785Z,17.97
2023-09-22T05:53:06.598Z,18.04
2023-09-22T05:56:13.394Z,18.16
2023-09-22T05:59:17.596Z,18.43
2023-09-22T06:02:21.041Z,18.70
2023-09-22T06:05:24.194Z,18.99
2023-09-22T06:08:27.247Z,19.20
2023-09-22T06:11:30.229Z,19.33
2023-09-22T06:14:33.147Z,19.37
2023-09-22T06:17:37.490Z,19.42
2023-09-22T06:20:40.432Z,19.51
2023-09-22T06:23:43.618Z,19.54
2023-09-22T06:26:46.394Z,19.60
2023-09-22T06:29:49.230Z,19.64
2023-09-22T06:32:52.380Z,19.76
2023-09-22T06:36:06.217Z,19.82
2023-09-22T06:39:09.814Z,20.09
2023-09-22T06:42:13.160Z,20.28
2023-09-22T06:45:19.655Z,20.51
2023-09-22T06:48:31.110Z,20.69
2023-09-22T06:51:34.966Z,20.73
2023-09-22T06:54:41.582Z,20.82
2023-09-22T06:57:44.950Z,20.74
2023-09-22T07:00:49.632Z,20.70
2023-09-22T07:03:52.794Z,20.59
2023-09-22T07:06:56.206Z,20.47
2023-09-22T07:09:59.489Z,20.70
2023-09-22T07:13:03.443Z,20.79
2023-09-22T07:16:06.549Z,20.95
2023-09-22T07:19:09.881Z,21.23
2023-09-22T07:22:13.394Z,21.23
2023-09-22T07:25:18.191Z,21.21
2023-09-22T07:28:21.101Z,21.23
2023-09-22T07:31:29.530Z,21.39
2023-09-22T07:34:33.101Z,21.59
2023-09-22T07:37:39.139Z,21.62
2023-09-22T07:40:42.197Z,21.72
2023-09-22T07:43:45.655Z,21.94
2023-09-22T07:46:51.858Z,22.12
2023-09-22T07:49:58.392Z,22.21
2023-09-22T07:53:02.065Z,22.21
2023-09-22T07:56:05.384Z,22.43
2023-09-22T07:59:13.700Z,22.47
2023-09-22T08:02:18.497Z,22.59
2023-09-22T08:05:24.354Z,22.77
2023-09-22T08:08:27.790Z,23.15
2023-09-22T08:11:31.992Z,23.21
2023-09-22T08:14:54.566Z,23.11
2023-09-22T08:17:59.564Z,22.93
2023-09-22T08:21:02.696Z,23.24
2023-09-22T08:24:06.474Z,23.84
2023-09-22T08:27:09.366Z,24.45
2023-09-22T08:30:13.221Z,25.11
2023-09-22T08:33:16.707Z,25.78
2023-09-22T08:36:20.396Z,26.10
2023-09-22T08:39:23.802Z,26.27
2023-09-22T08:42:29.171Z,26.57
2023-09-22T08:45:32.460Z,26.67
2023-09-22T08:48:36.073Z,26.90
2023-09-22T08:51:39.392Z,27.08
2023-09-22T08:54:44.175Z,27.38
2023-09-22T08:57:48.680Z,27.44
2023-09-22T09:00:53.090Z,27.26
2023-09-22T09:03:56.437Z,27.05
2023-09-22T09:07:00.513Z,26.99
2023-09-22T09:10:03.564Z,27.14
2023-09-22T09:13:09.187Z,27.23
2023-09-22T09:16:13.143Z,27.61
2023-09-22T09:19:16.475Z,27.94
2023-09-22T09:22:19.715Z,27.97
2023-09-22T09:25:22.998Z,28.14
2023-09-22T09:28:26.546Z,28.21
2023-09-22T09:31:49.161Z,28.05
2023-09-22T09:34:52.612Z,28.31
2023-09-22T09:38:04.575Z,28.68
2023-09-22T09:41:09.627Z,29.08
2023-09-22T09:44:13.308Z,28.92
2023-09-22T09:47:38.464Z,29.14
2023-09-22T09:50:44.282Z,29.60
2023-09-22T09:53:52.693Z,29.84
2023-09-22T09:56:56.687Z,29.95
2023-09-22T10:00:00.692Z,29.73
2023-09-22T10:03:08.158Z,29.91
2023-09-22T10:06:13.792Z,29.81
2023-09-22T10:09:17.467Z,29.23
2023-09-22T10:12:21.076Z,29.08
2023-09-22T10:15:52.399Z,28.93
2023-09-22T10:19:03.476Z,28.87
2023-09-22T10:22:13.592Z,29.13
2023-09-22T10:25:31.560Z,29.39
2023-09-22T10:28:38.523Z,29.76
2023-09-22T10:32:22.950Z,29.68
2023-09-22T10:35:41.885Z,29.84
2023-09-22T10:38:56.556Z,29.80
2023-09-22T10:42:01.007Z,29.61
2023-09-22T10:45:07.078Z,29.35
2023-09-22T10:48:12.308Z,29.39
2023-09-22T10:51:16.248Z,29.33
2023-09-22T10:54:19.961Z,29.20
2023-09-22T10:57:25.058Z,29.31
2023-09-22T11:00:28.355Z,29.26
2023-09-22T11:03:34.191Z,29.16
2023-09-22T11:06:43.838Z,29.06
2023-09-22T11:09:49.387Z,29.16
2023-09-22T11:12:53.327Z,29.53
2023-09-22T11:16:01.311Z,30.19
2023-09-22T11:19:06.361Z,30.64
2023-09-22T11:22:11.219Z,30.54
2023-09-22T11:25:14.766Z,30.31
2023-09-22T11:28:18.500Z,30.34
2023-09-22T11:31:21.365Z,30.30
2023-09-22T11:34:25.829Z,30.83
2023-09-22T11:37:32.385Z,31.24
2023-09-22T11:40:40.869Z,31.58
2023-09-22T11:43:49.608Z,31.97
2023-09-22T11:46:53.818Z,31.94
2023-09-22T11:49:57.104Z,31.79
2023-09-22T11:53:21.717Z,31.36
2023-09-22T11:56:25.091Z,31.30
2023-09-22T11:59:33.300Z,31.71
2023-09-22T12:02:36.763Z,31.77
2023-09-22T12:05:40.108Z,31.28
2023-09-22T12:08:42.887Z,30.84
2023-09-22T12:11:47.294Z,31.03
2023-09-22T12:14:50.249Z,31.05
2023-09-22T12:17:53.257Z,31.03
2023-09-22T12:20:57.368Z,30.84
2023-09-22T12:24:01.292Z,30.80
2023-09-22T12:27:04.722Z,30.80
2023-09-22T12:30:08.718Z,31.18
2023-09-22T12:33:13.040Z,31.60
2023-09-22T12:36:17.597Z,32.41
2023-09-22T12:39:20.489Z,33.07
2023-09-22T12:42:23.522Z,33.42
2023-09-22T12:45:26.839Z,33.32
2023-09-22T12:48:29.989Z,32.35
2023-09-22T12:51:32.958Z,31.96
2023-09-22T12:54:36.284Z,32.71
2023-09-22T12:57:40.534Z,31.94
2023-09-22T13:00:44.381Z,33.89
2023-09-22T13:03:47.792Z,36.80
2023-09-22T13:06:54.043Z,38.67
2023-09-22T13:09:56.915Z,40.48
2023-09-22T13:13:00.074Z,41.60
2023-09-22T13:16:03.962Z,43.07
2023-09-22T13:19:07.370Z,43.68
2023-09-22T13:22:10.669Z,43.73
2023-09-22T13:25:14.435Z,42.66
2023-09-22T13:28:18.028Z,41.43
2023-09-22T13:31:21.465Z,40.85
2023-09-22T13:34:24.760Z,41.01
2023-09-22T13:37:28.232Z,41.80
2023-09-22T13:40:32.499Z,42.57
2023-09-22T13:43:36.148Z,43.22
2023-09-22T13:46:38.887Z,43.45
2023-09-22T13:49:41.973Z,43.70
2023-09-22T13:52:45.760Z,44.90
2023-09-22T13:55:50.271Z,44.85
2023-09-22T13:58:53.213Z,43.71
2023-09-22T14:01:57.215Z,41.43
2023-09-22T14:05:00.458Z,38.57
2023-09-22T14:08:05.369Z,37.73
2023-09-22T14:11:14.330Z,39.76
2023-09-22T14:14:21.632Z,41.70
2023-09-22T14:17:25.309Z,41.20
2023-09-22T14:20:28.419Z,40.19
2023-09-22T14:23:31.576Z,39.86
2023-09-22T14:26:34.558Z,38.91
2023-09-22T14:29:38.027Z,37.54
2023-09-22T14:32:43.060Z,37.84
2023-09-22T14:35:47.619Z,37.60
2023-09-22T14:38:50.702Z,36.13
2023-09-22T14:41:53.792Z,34.83
2023-09-22T14:44:56.639Z,33.67
2023-09-22T14:47:59.785Z,32.95
2023-09-22T14:51:08.599Z,32.47
2023-09-22T14:54:12.199Z,32.01
2023-09-22T14:57:15.389Z,31.83
2023-09-22T15:00:18.702Z,31.70
2023-09-22T15:03:21.745Z,31.95
2023-09-22T15:06:24.891Z,32.34
2023-09-22T15:09:27.926Z,32.95
2023-09-22T15:12:31.463Z,32.69
2023-09-22T15:15:36.738Z,31.35
2023-09-22T15:18:41.062Z,30.89
2023-09-22T15:21:44.354Z,30.37
